Rising Fawn, Georgia
Current Conditions -  °F | °C
As of 3:55 PM on Tuesday 27 Jan 2015 (Local Time) from K4A9 Reporting Station
Scattered Clouds Scattered Clouds  
Wind Chill: 41°   Ceiling: Unl
Heat Index: 46°   Visibility: 10mi
Dew Point: 28°   Wind: 12mph
Humidity: 50%   Direction: 340°NNW
Pressure: 30.01"   Gusts: 16mph
Location:  34.76°N, 85.53°W
Report Text: K4A9 272055Z AUTO 34010G14KT 320V020 10SM SCT039 08/M02 A3001 RMK AO2
Loading
Personal Weather Stations






























Interactive Weather Map New forecast layout! Learn more

10-Day Weather Forecast

Advertisements
Track Severe Weather on mobile